createdAt,value
2022-08-22T00:01:29.980Z,18.60
2022-08-22T00:02:43.621Z,20.00
2022-08-22T00:02:44.017Z,19.80
2022-08-22T00:02:56.596Z,20.50
2022-08-22T00:03:00.778Z,20.70
2022-08-22T00:03:12.195Z,18.70
2022-08-22T00:04:09.749Z,18.70
2022-08-22T00:06:50.399Z,18.60
2022-08-22T00:09:52.826Z,18.60
2022-08-22T00:12:49.853Z,18.60
2022-08-22T00:15:42.531Z,18.60
2022-08-22T00:18:24.889Z,18.60
2022-08-22T00:21:19.029Z,18.50
2022-08-22T00:23:48.991Z,18.50
2022-08-22T00:26:38.845Z,18.50
2022-08-22T00:29:17.736Z,18.50
2022-08-22T00:31:51.209Z,18.50
2022-08-22T00:34:22.638Z,18.50
2022-08-22T00:37:12.089Z,18.50
2022-08-22T00:40:21.564Z,18.40
2022-08-22T00:42:54.523Z,18.40
2022-08-22T00:45:30.726Z,18.40
2022-08-22T00:48:30.218Z,18.40
2022-08-22T00:51:13.810Z,18.50
2022-08-22T00:53:47.107Z,18.40
2022-08-22T00:56:31.832Z,18.40
2022-08-22T00:59:44.249Z,18.40
2022-08-22T01:02:40.751Z,18.30
2022-08-22T01:05:19.659Z,18.30
2022-08-22T01:08:12.907Z,18.40
2022-08-22T01:10:46.068Z,18.30
2022-08-22T01:13:24.762Z,18.30
2022-08-22T01:15:59.392Z,18.30
2022-08-22T01:18:35.379Z,18.20
2022-08-22T01:21:26.962Z,18.30
2022-08-22T01:24:20.044Z,18.30
2022-08-22T01:27:05.736Z,18.20
2022-08-22T01:30:07.974Z,18.20
2022-08-22T01:32:48.983Z,18.20
2022-08-22T01:35:52.114Z,18.20
2022-08-22T01:38:43.953Z,18.20
2022-08-22T01:41:38.560Z,18.10
2022-08-22T01:44:20.987Z,18.10
2022-08-22T01:47:07.095Z,18.10
2022-08-22T01:49:33.949Z,18.10
2022-08-22T01:52:12.998Z,18.10
2022-08-22T01:55:06.232Z,18.00
2022-08-22T01:57:47.975Z,18.00
2022-08-22T02:00:19.938Z,18.00
2022-08-22T02:03:27.628Z,18.00
2022-08-22T02:06:16.041Z,18.00
2022-08-22T02:09:30.816Z,18.10
2022-08-22T02:12:23.228Z,18.10
2022-08-22T02:15:26.783Z,18.10
2022-08-22T02:18:05.721Z,18.10
2022-08-22T02:21:02.995Z,18.10
2022-08-22T02:24:00.180Z,18.10
2022-08-22T02:27:09.133Z,18.10
2022-08-22T02:30:01.387Z,18.00
2022-08-22T02:32:40.365Z,18.00
2022-08-22T02:35:14.224Z,18.00
2022-08-22T02:37:48.723Z,17.90
2022-08-22T02:40:37.471Z,18.00
2022-08-22T02:43:23.355Z,17.90
2022-08-22T02:46:19.222Z,17.90
2022-08-22T02:49:12.135Z,17.90
2022-08-22T02:52:04.604Z,17.90
2022-08-22T02:54:41.785Z,17.90
2022-08-22T02:57:18.968Z,17.90
2022-08-22T03:00:38.825Z,17.90
2022-08-22T03:03:16.996Z,17.90
2022-08-22T03:05:43.817Z,17.80
2022-08-22T03:08:37.963Z,17.80
2022-08-22T03:11:27.202Z,17.80
2022-08-22T03:14:27.585Z,17.80
2022-08-22T03:17:13.055Z,17.80
2022-08-22T03:20:01.567Z,17.80
2022-08-22T03:22:59.946Z,17.70
2022-08-22T03:25:30.906Z,17.70
2022-08-22T03:28:11.835Z,17.70
2022-08-22T03:30:56.089Z,17.60
2022-08-22T03:33:29.633Z,17.50
2022-08-22T03:36:10.288Z,17.50
2022-08-22T03:38:37.078Z,17.50
2022-08-22T03:41:12.802Z,17.50
2022-08-22T03:43:51.837Z,17.60
2022-08-22T03:46:36.232Z,17.60
2022-08-22T03:49:22.160Z,17.60
2022-08-22T03:52:04.615Z,17.50
2022-08-22T03:54:37.387Z,17.50
2022-08-22T03:57:19.767Z,17.50
2022-08-22T04:00:12.983Z,17.40
2022-08-22T04:02:58.569Z,17.40
2022-08-22T04:06:00.597Z,17.40
2022-08-22T04:08:43.942Z,17.40
2022-08-22T04:11:36.497Z,17.40
2022-08-22T04:14:39.856Z,17.40
2022-08-22T04:17:24.890Z,17.40
2022-08-22T04:20:19.488Z,17.40
2022-08-22T04:23:01.112Z,17.40
2022-08-22T04:25:52.659Z,17.40
2022-08-22T04:28:25.492Z,17.40
2022-08-22T04:31:07.269Z,17.40
2022-08-22T04:33:45.387Z,17.40
2022-08-22T04:36:43.330Z,17.30
2022-08-22T04:39:20.395Z,17.30
2022-08-22T04:42:31.180Z,17.30
2022-08-22T04:45:01.981Z,17.30
2022-08-22T04:47:34.033Z,17.30
2022-08-22T04:50:25.256Z,17.30
2022-08-22T04:53:25.501Z,17.30
2022-08-22T04:55:56.279Z,17.30
2022-08-22T04:58:55.840Z,17.30
2022-08-22T05:01:37.249Z,17.30
2022-08-22T05:04:13.542Z,17.30
2022-08-22T05:06:52.058Z,17.30
2022-08-22T05:09:26.623Z,17.30
2022-08-22T05:11:58.075Z,17.40
2022-08-22T05:14:40.631Z,17.30
2022-08-22T05:17:10.511Z,17.40
2022-08-22T05:19:42.349Z,17.30
2022-08-22T05:22:19.396Z,17.30
2022-08-22T05:24:52.500Z,17.30
2022-08-22T05:27:27.228Z,17.40
2022-08-22T05:30:03.339Z,17.40
2022-08-22T05:32:36.601Z,17.40
2022-08-22T05:35:08.636Z,17.40
2022-08-22T05:37:48.271Z,17.50
2022-08-22T05:40:29.628Z,17.50
2022-08-22T05:42:58.251Z,17.50
2022-08-22T05:45:27.316Z,17.60
2022-08-22T05:48:07.858Z,17.60
2022-08-22T05:50:56.610Z,17.60
2022-08-22T05:53:37.963Z,17.70
2022-08-22T05:56:13.250Z,17.70
2022-08-22T05:58:52.928Z,17.70
2022-08-22T06:01:25.358Z,17.70
2022-08-22T06:04:13.449Z,17.70
2022-08-22T06:06:46.693Z,17.70
2022-08-22T06:09:43.876Z,17.70
2022-08-22T06:12:22.328Z,17.70
2022-08-22T06:15:15.109Z,17.70
2022-08-22T06:17:48.633Z,17.80
2022-08-22T06:20:23.737Z,17.80
2022-08-22T06:23:02.406Z,17.80
2022-08-22T06:25:36.086Z,17.80
2022-08-22T06:28:13.979Z,17.80
2022-08-22T06:30:45.624Z,17.80
2022-08-22T06:33:23.919Z,17.90
2022-08-22T06:36:16.261Z,17.90
2022-08-22T06:39:10.528Z,17.90
2022-08-22T06:42:01.088Z,17.90
2022-08-22T06:44:32.569Z,18.00
2022-08-22T06:47:02.396Z,18.00
2022-08-22T06:49:32.571Z,18.00
2022-08-22T06:52:05.317Z,18.00
2022-08-22T06:54:36.375Z,18.00
2022-08-22T06:57:06.600Z,18.10
2022-08-22T06:59:37.632Z,18.10
2022-08-22T07:02:17.409Z,18.20
2022-08-22T07:04:49.263Z,18.20
2022-08-22T07:07:19.839Z,18.30
2022-08-22T07:09:51.449Z,18.40
2022-08-22T07:12:20.624Z,18.50
2022-08-22T07:14:50.976Z,18.70
2022-08-22T07:17:46.519Z,18.90
2022-08-22T07:20:23.644Z,18.90
2022-08-22T07:23:00.926Z,18.80
2022-08-22T07:25:29.736Z,18.80
2022-08-22T07:28:36.739Z,18.80
2022-08-22T07:31:38.289Z,18.80
2022-08-22T07:34:33.215Z,18.80
2022-08-22T07:37:06.768Z,18.80
2022-08-22T07:39:43.750Z,18.80
2022-08-22T07:42:17.258Z,18.80
2022-08-22T07:45:06.506Z,18.80
2022-08-22T07:47:49.729Z,18.90
2022-08-22T07:50:23.321Z,18.90
2022-08-22T07:52:51.939Z,18.90
2022-08-22T07:55:20.553Z,18.90
2022-08-22T07:57:54.597Z,18.90
2022-08-22T08:00:22.897Z,18.90
2022-08-22T08:02:56.521Z,19.00
2022-08-22T08:05:27.580Z,19.10
2022-08-22T08:07:56.359Z,19.20
2022-08-22T08:10:28.563Z,19.20
2022-08-22T08:13:03.401Z,19.30
2022-08-22T08:15:34.501Z,19.40
2022-08-22T08:18:05.560Z,19.50
2022-08-22T08:20:35.604Z,19.60
2022-08-22T08:23:08.848Z,19.60
2022-08-22T08:25:57.516Z,19.60
2022-08-22T08:28:37.705Z,19.70
2022-08-22T08:31:10.253Z,19.70
2022-08-22T08:33:41.941Z,19.70
2022-08-22T08:36:17.848Z,19.70
2022-08-22T08:39:12.454Z,19.60
2022-08-22T08:41:51.249Z,19.60
2022-08-22T08:44:37.659Z,19.70
2022-08-22T08:47:26.385Z,19.70
2022-08-22T08:50:01.339Z,19.70
2022-08-22T08:52:41.068Z,19.80
2022-08-22T08:55:29.824Z,19.90
2022-08-22T08:58:17.847Z,20.00
2022-08-22T09:01:02.026Z,20.10
2022-08-22T09:03:47.908Z,20.20
2022-08-22T09:07:01.751Z,20.30
2022-08-22T09:10:09.861Z,20.40
2022-08-22T09:13:16.854Z,20.50
2022-08-22T09:16:16.251Z,20.60
2022-08-22T09:18:57.671Z,20.60
2022-08-22T09:21:48.643Z,20.70
2022-08-22T09:24:37.317Z,20.80
2022-08-22T09:27:30.217Z,20.80
2022-08-22T09:30:27.643Z,20.90
2022-08-22T09:33:14.066Z,21.00
2022-08-22T09:36:05.036Z,21.10
2022-08-22T09:38:35.437Z,21.10
2022-08-22T09:41:25.285Z,21.20
2022-08-22T09:44:04.492Z,21.20
2022-08-22T09:46:57.412Z,21.30
2022-08-22T09:50:13.051Z,21.40
2022-08-22T09:53:24.433Z,21.50
2022-08-22T09:56:23.453Z,21.50
2022-08-22T09:59:31.643Z,21.60
2022-08-22T10:02:27.580Z,21.60
2022-08-22T10:05:06.251Z,21.70
2022-08-22T10:07:54.252Z,21.70
2022-08-22T10:10:40.429Z,21.70
2022-08-22T10:13:21.404Z,21.80
2022-08-22T10:16:06.964Z,21.70
2022-08-22T10:18:52.751Z,21.80
2022-08-22T10:21:45.061Z,21.80
2022-08-22T10:24:43.742Z,21.80
2022-08-22T10:27:18.255Z,21.80
2022-08-22T10:30:10.346Z,21.90
2022-08-22T10:33:03.239Z,21.90
2022-08-22T10:36:17.836Z,21.90
2022-08-22T10:38:54.577Z,22.00
2022-08-22T10:42:09.815Z,22.10
2022-08-22T10:44:49.099Z,22.20
2022-08-22T10:47:21.376Z,22.30
2022-08-22T10:49:54.654Z,22.40
2022-08-22T10:52:31.906Z,22.50
2022-08-22T10:55:34.108Z,22.60
2022-08-22T10:58:00.890Z,22.60
2022-08-22T11:00:58.867Z,22.70
2022-08-22T11:03:39.481Z,22.90
2022-08-22T11:06:24.118Z,22.90
2022-08-22T11:09:21.760Z,23.00
2022-08-22T11:12:04.424Z,23.00
2022-08-22T11:14:50.420Z,23.10
2022-08-22T11:17:54.111Z,23.10
2022-08-22T11:20:31.725Z,23.10
2022-08-22T11:23:12.383Z,23.30
2022-08-22T11:26:29.998Z,23.50
2022-08-22T11:29:21.483Z,23.60
2022-08-22T11:32:36.798Z,23.70
2022-08-22T11:35:22.918Z,23.80
2022-08-22T11:38:31.206Z,23.80
2022-08-22T11:41:13.485Z,23.90
2022-08-22T11:44:50.794Z,24.00
2022-08-22T11:47:26.327Z,24.20
2022-08-22T11:50:14.396Z,24.40
2022-08-22T11:52:51.785Z,24.60
2022-08-22T11:55:33.320Z,24.80
2022-08-22T11:58:39.968Z,24.90
2022-08-22T12:01:18.495Z,25.00
2022-08-22T12:04:16.575Z,25.10
2022-08-22T12:07:02.192Z,25.20
2022-08-22T12:09:35.827Z,25.30
2022-08-22T12:12:26.559Z,25.40
2022-08-22T12:15:03.403Z,25.50
2022-08-22T12:17:55.741Z,25.50
2022-08-22T12:20:56.445Z,25.70
2022-08-22T12:23:48.720Z,25.80
2022-08-22T12:26:25.142Z,26.00
2022-08-22T12:29:15.467Z,26.20
2022-08-22T12:31:58.573Z,26.30
2022-08-22T12:35:13.407Z,26.30
2022-08-22T12:38:28.975Z,26.30
2022-08-22T12:40:56.121Z,26.30
2022-08-22T12:43:26.288Z,26.20
2022-08-22T12:46:02.400Z,26.00
2022-08-22T12:48:56.749Z,26.00
2022-08-22T12:51:50.296Z,25.90
2022-08-22T12:54:28.399Z,26.10
2022-08-22T12:57:00.706Z,26.10
2022-08-22T12:59:36.135Z,26.10
2022-08-22T13:02:32.350Z,26.20
2022-08-22T13:05:23.388Z,26.20
2022-08-22T13:08:01.227Z,26.40
2022-08-22T13:10:40.040Z,26.70
2022-08-22T13:13:12.672Z,27.10
2022-08-22T13:15:46.124Z,27.30
2022-08-22T13:18:31.223Z,27.20
2022-08-22T13:21:02.304Z,27.10
2022-08-22T13:23:47.136Z,27.00
2022-08-22T13:26:32.977Z,26.80
2022-08-22T13:29:25.661Z,26.70
2022-08-22T13:31:59.142Z,26.50
2022-08-22T13:34:48.191Z,26.40
2022-08-22T13:37:29.957Z,26.30
2022-08-22T13:40:03.707Z,26.30
2022-08-22T13:42:33.472Z,26.20
2022-08-22T13:45:05.540Z,26.20
2022-08-22T13:47:37.222Z,26.20
2022-08-22T13:50:14.738Z,26.20
2022-08-22T13:53:02.056Z,26.20
2022-08-22T13:55:56.892Z,26.20
2022-08-22T13:58:57.864Z,26.30
2022-08-22T14:01:37.802Z,26.40
2022-08-22T14:04:32.175Z,26.30
2022-08-22T14:07:06.051Z,26.40
2022-08-22T14:09:54.994Z,26.40
2022-08-22T14:12:27.416Z,26.40
2022-08-22T14:15:02.084Z,26.40
2022-08-22T14:17:34.479Z,26.30
2022-08-22T14:20:32.003Z,26.30
2022-08-22T14:23:05.216Z,26.20
2022-08-22T14:25:36.678Z,26.10
2022-08-22T14:28:09.375Z,26.00
2022-08-22T14:31:01.074Z,25.90
2022-08-22T14:33:50.784Z,25.80
2022-08-22T14:36:23.298Z,25.80
2022-08-22T14:38:51.885Z,25.90
2022-08-22T14:41:52.347Z,25.90
2022-08-22T14:44:29.611Z,25.90
2022-08-22T14:47:00.523Z,26.00
2022-08-22T14:49:47.644Z,26.40
2022-08-22T14:52:37.475Z,26.70
2022-08-22T14:55:08.839Z,26.90
2022-08-22T14:57:42.086Z,27.00
2022-08-22T15:00:13.745Z,27.10
2022-08-22T15:02:42.161Z,27.20
2022-08-22T15:05:16.765Z,27.40
2022-08-22T15:07:56.053Z,27.80
2022-08-22T15:10:32.816Z,28.60
2022-08-22T15:13:07.740Z,28.90
2022-08-22T15:15:53.386Z,29.10
2022-08-22T15:18:28.904Z,29.30
2022-08-22T15:21:18.494Z,29.40
2022-08-22T15:23:46.930Z,29.30
2022-08-22T15:26:25.643Z,29.00
2022-08-22T15:29:09.617Z,28.70
2022-08-22T15:31:39.818Z,28.30
2022-08-22T15:34:21.813Z,28.00
2022-08-22T15:37:11.970Z,27.70
2022-08-22T15:40:05.815Z,27.40
2022-08-22T15:42:57.225Z,27.20
2022-08-22T15:45:38.364Z,27.00
2022-08-22T15:48:28.137Z,26.80
2022-08-22T15:51:01.697Z,26.90
2022-08-22T15:53:44.515Z,27.40
2022-08-22T15:56:11.330Z,27.80
2022-08-22T15:58:48.788Z,28.40
2022-08-22T16:01:24.120Z,29.10
2022-08-22T16:04:07.768Z,29.40
2022-08-22T16:06:49.256Z,29.40
2022-08-22T16:09:39.100Z,29.30
2022-08-22T16:12:31.135Z,29.00
2022-08-22T16:14:59.694Z,28.50
2022-08-22T16:17:29.522Z,27.90
2022-08-22T16:20:19.971Z,27.50
2022-08-22T16:22:56.519Z,27.00
2022-08-22T16:25:45.362Z,26.70
2022-08-22T16:28:58.635Z,26.40
2022-08-22T16:31:37.565Z,26.10
2022-08-22T16:34:20.345Z,25.80
2022-08-22T16:36:50.106Z,25.70
2022-08-22T16:39:22.952Z,25.70
2022-08-22T16:42:15.024Z,25.50
2022-08-22T16:44:49.871Z,25.40
2022-08-22T16:47:41.362Z,25.20
2022-08-22T16:50:22.418Z,25.20
2022-08-22T16:53:11.832Z,25.00
2022-08-22T16:55:42.818Z,24.90
2022-08-22T16:58:55.740Z,24.90
2022-08-22T17:01:48.573Z,24.80
2022-08-22T17:04:28.131Z,24.60
2022-08-22T17:07:23.000Z,24.50
2022-08-22T17:10:02.970Z,24.50
2022-08-22T17:12:58.394Z,24.50
2022-08-22T17:15:28.237Z,24.30
2022-08-22T17:18:18.342Z,24.40
2022-08-22T17:21:19.249Z,24.40
2022-08-22T17:23:58.097Z,24.40
2022-08-22T17:26:30.025Z,24.40
2022-08-22T17:28:57.219Z,24.30
2022-08-22T17:31:54.499Z,24.30
2022-08-22T17:34:47.611Z,24.30
2022-08-22T17:37:22.323Z,24.20
2022-08-22T17:40:04.633Z,24.20
2022-08-22T17:42:41.145Z,24.20
2022-08-22T17:45:19.289Z,24.20
2022-08-22T17:48:13.474Z,24.10
2022-08-22T17:50:54.929Z,24.10
2022-08-22T17:53:34.771Z,24.10
2022-08-22T17:56:41.096Z,24.10
2022-08-22T17:59:20.934Z,24.10
2022-08-22T18:02:01.364Z,24.10
2022-08-22T18:05:03.627Z,24.10
2022-08-22T18:07:45.998Z,24.00
2022-08-22T18:10:38.771Z,24.00
2022-08-22T18:13:13.125Z,23.90
2022-08-22T18:15:57.495Z,23.80
2022-08-22T18:18:31.493Z,23.80
2022-08-22T18:21:07.897Z,23.70
2022-08-22T18:23:58.095Z,23.70
2022-08-22T18:26:45.686Z,23.70
2022-08-22T18:29:24.525Z,23.60
2022-08-22T18:32:18.633Z,23.50
2022-08-22T18:35:05.365Z,23.50
2022-08-22T18:37:35.445Z,23.40
2022-08-22T18:40:24.971Z,23.30
2022-08-22T18:43:14.187Z,23.30
2022-08-22T18:45:47.165Z,23.20
2022-08-22T18:48:27.921Z,23.10
2022-08-22T18:51:25.648Z,23.00
2022-08-22T18:54:11.120Z,23.00
2022-08-22T18:56:54.737Z,22.90
2022-08-22T19:00:01.587Z,22.80
2022-08-22T19:03:03.612Z,22.70
2022-08-22T19:05:33.717Z,22.70
2022-08-22T19:08:00.933Z,22.60
2022-08-22T19:10:43.276Z,22.60
2022-08-22T19:13:12.104Z,22.50
2022-08-22T19:15:54.451Z,22.50
2022-08-22T19:18:34.575Z,22.40
2022-08-22T19:21:35.071Z,22.30
2022-08-22T19:24:32.439Z,22.30
2022-08-22T19:27:12.416Z,22.30
2022-08-22T19:29:39.816Z,22.30
2022-08-22T19:32:12.885Z,22.30
2022-08-22T19:34:46.957Z,22.20
2022-08-22T19:37:30.879Z,22.20
2022-08-22T19:40:05.528Z,22.10
2022-08-22T19:42:36.124Z,22.10
2022-08-22T19:45:06.622Z,22.00
2022-08-22T19:47:37.484Z,22.00
2022-08-22T19:50:16.461Z,21.90
2022-08-22T19:53:03.424Z,21.80
2022-08-22T19:56:08.541Z,21.80
2022-08-22T19:58:41.187Z,21.70
2022-08-22T20:01:26.570Z,21.70
2022-08-22T20:04:05.308Z,21.60
2022-08-22T20:06:46.693Z,21.60
2022-08-22T20:09:38.440Z,21.60
2022-08-22T20:12:26.502Z,21.60
2022-08-22T20:14:54.325Z,21.50
2022-08-22T20:17:24.178Z,21.50
2022-08-22T20:22:48.240Z,21.40
2022-08-22T20:25:42.320Z,21.30
2022-08-22T20:28:10.104Z,21.30
2022-08-22T20:30:43.832Z,21.20
2022-08-22T20:33:17.467Z,21.10
2022-08-22T20:35:59.060Z,21.10
2022-08-22T20:38:39.482Z,21.10
2022-08-22T20:41:23.073Z,21.00
2022-08-22T20:43:56.760Z,21.00
2022-08-22T20:46:53.231Z,20.90
2022-08-22T20:49:43.263Z,20.90
2022-08-22T20:52:29.830Z,20.90
2022-08-22T20:55:02.914Z,20.80
2022-08-22T20:57:31.082Z,20.80
2022-08-22T21:00:06.586Z,20.80
2022-08-22T21:02:36.537Z,20.80
2022-08-22T21:05:11.915Z,20.80
2022-08-22T21:07:44.932Z,20.80
2022-08-22T21:10:43.392Z,20.70
2022-08-22T21:13:25.485Z,20.80
2022-08-22T21:16:02.482Z,20.60
2022-08-22T21:18:37.654Z,20.70
2022-08-22T21:21:10.510Z,20.60
2022-08-22T21:23:55.498Z,20.60
2022-08-22T21:26:38.916Z,20.60
2022-08-22T21:29:17.960Z,20.60
2022-08-22T21:31:50.314Z,20.60
2022-08-22T21:34:22.231Z,20.40
2022-08-22T21:36:52.439Z,20.40
2022-08-22T21:39:30.796Z,20.40
2022-08-22T21:42:00.564Z,20.30
2022-08-22T21:44:56.085Z,20.30
2022-08-22T21:47:30.417Z,20.30
2022-08-22T21:50:13.469Z,20.30
2022-08-22T21:52:44.647Z,20.20
2022-08-22T21:55:23.457Z,20.20
2022-08-22T21:58:12.555Z,20.10
2022-08-22T22:00:51.627Z,20.10
2022-08-22T22:03:36.189Z,20.00
2022-08-22T22:06:05.621Z,20.00
2022-08-22T22:08:33.723Z,20.00
2022-08-22T22:11:04.734Z,19.90
2022-08-22T22:13:35.434Z,20.00
2022-08-22T22:16:02.576Z,19.90
2022-08-22T22:18:34.144Z,19.90
2022-08-22T22:21:01.600Z,19.90
2022-08-22T22:23:28.806Z,19.90
2022-08-22T22:25:58.241Z,19.80
2022-08-22T22:28:40.607Z,19.80
2022-08-22T22:31:07.749Z,19.90
2022-08-22T22:33:38.262Z,19.80
2022-08-22T22:36:19.671Z,19.80
2022-08-22T22:38:47.535Z,19.70
2022-08-22T22:41:14.544Z,19.70
2022-08-22T22:43:42.393Z,19.70
2022-08-22T22:46:09.365Z,19.70
2022-08-22T22:48:36.236Z,19.70
2022-08-22T22:51:08.676Z,19.60
2022-08-22T22:53:40.472Z,19.60
2022-08-22T22:56:13.102Z,19.60
2022-08-22T22:58:40.317Z,19.60
2022-08-22T23:01:13.105Z,19.60
2022-08-22T23:03:39.990Z,19.50
2022-08-22T23:06:21.656Z,19.50
2022-08-22T23:08:49.214Z,19.50
2022-08-22T23:11:25.287Z,19.50
2022-08-22T23:13:52.499Z,19.40
2022-08-22T23:16:22.655Z,19.40
2022-08-22T23:18:50.591Z,19.40
2022-08-22T23:21:23.968Z,19.30
2022-08-22T23:23:51.579Z,19.30
2022-08-22T23:26:18.566Z,19.20
2022-08-22T23:28:45.608Z,19.20
2022-08-22T23:31:19.233Z,19.10
2022-08-22T23:33:46.595Z,19.10
2022-08-22T23:36:16.134Z,19.10
2022-08-22T23:38:44.129Z,19.00
2022-08-22T23:41:13.360Z,19.00
2022-08-22T23:43:49.345Z,19.00
2022-08-22T23:46:18.664Z,19.00
2022-08-22T23:48:45.997Z,19.00
2022-08-22T23:51:15.519Z,19.00
2022-08-22T23:53:44.297Z,19.00
2022-08-22T23:56:19.547Z,18.90
2022-08-22T23:58:49.049Z,18.90
